createdAt,value
2018-12-07T00:11:01.604Z,1003.25
2018-12-07T00:16:01.448Z,1003.25
2018-12-07T00:31:01.454Z,1003.15
2018-12-07T00:36:06.415Z,1003.15
2018-12-07T00:51:01.662Z,1003.05
2018-12-07T01:06:01.485Z,1003.01
2018-12-07T01:21:01.503Z,1002.97
2018-12-07T01:37:01.468Z,1002.91
2018-12-07T01:52:01.431Z,1002.95
2018-12-07T01:57:01.410Z,1002.95
2018-12-07T02:12:01.477Z,1002.97
2018-12-07T02:27:01.513Z,1002.95
2018-12-07T02:42:01.522Z,1002.76
2018-12-07T02:57:01.466Z,1002.78
2018-12-07T03:13:01.494Z,1002.9
2018-12-07T03:28:01.416Z,1002.87
2018-12-07T03:43:01.533Z,1002.76
2018-12-07T03:58:01.557Z,1002.72
2018-12-07T04:13:02.597Z,1002.44
2018-12-07T04:28:01.430Z,1002.57
2018-12-07T04:43:01.457Z,1002.41
2018-12-07T04:48:01.383Z,1002.41
2018-12-07T05:03:01.563Z,1002.45
2018-12-07T05:18:01.803Z,1002.28
2018-12-07T05:33:01.514Z,1002.01
2018-12-07T05:48:01.548Z,1001.96
2018-12-07T05:53:02.463Z,1001.7
2018-12-07T06:08:01.469Z,1001.73
2018-12-07T06:23:01.587Z,1001.62
2018-12-07T06:38:01.261Z,1001.54
2018-12-07T06:53:06.376Z,1001.25
2018-12-07T07:08:01.377Z,1001.12
2018-12-07T07:23:01.386Z,1000.83
2018-12-07T07:38:01.365Z,1000.67
2018-12-07T07:53:01.364Z,1000.34
2018-12-07T07:58:01.383Z,1000.34
2018-12-07T08:13:01.398Z,1000.12
2018-12-07T08:18:01.336Z,1000.12
2018-12-07T08:33:01.371Z,999.72
2018-12-07T08:48:01.384Z,999.59
2018-12-07T08:53:01.333Z,999.42
2018-12-07T09:03:01.439Z,999.18
2018-12-07T09:13:01.401Z,998.99
2018-12-07T09:18:01.408Z,998.99
2018-12-07T09:23:02.446Z,998.83
2018-12-07T09:33:02.093Z,998.69
2018-12-07T09:43:01.428Z,998.44
2018-12-07T09:53:01.415Z,998.26
2018-12-07T10:03:01.446Z,998.04
2018-12-07T10:18:01.387Z,997.79
2018-12-07T10:23:01.385Z,997.55
2018-12-07T10:38:01.395Z,997.37
2018-12-07T10:53:01.385Z,996.97
2018-12-07T11:09:01.431Z,996.71
2018-12-07T11:24:01.426Z,996.24
2018-12-07T11:39:13.046Z,995.97
2018-12-07T11:54:06.198Z,995.43
2018-12-07T12:09:01.393Z,995.22
2018-12-07T12:24:01.392Z,994.84
2018-12-07T12:39:01.396Z,994.65
2018-12-07T12:45:01.351Z,994.44
2018-12-07T12:55:02.492Z,994.2
2018-12-07T13:00:01.375Z,994.2
2018-12-07T13:15:01.409Z,993.73
2018-12-07T13:30:01.421Z,993.56
2018-12-07T13:35:01.389Z,993.24
2018-12-07T13:51:01.810Z,992.96
2018-12-07T14:06:01.971Z,992.63
2018-12-07T14:21:02.029Z,992.52
2018-12-07T14:36:01.874Z,992.08
2018-12-07T14:51:01.678Z,991.84
2018-12-07T15:06:02.037Z,991.54
2018-12-07T15:21:01.896Z,991.33
2018-12-07T15:36:01.900Z,990.91
2018-12-07T15:51:01.702Z,990.71
2018-12-07T16:06:01.485Z,990.45
2018-12-07T16:21:01.767Z,990.2
2018-12-07T16:36:01.889Z,989.86
2018-12-07T16:51:01.702Z,989.6
2018-12-07T17:06:02.217Z,989.12
2018-12-07T17:16:01.846Z,989.03
2018-12-07T17:31:01.505Z,988.91
2018-12-07T17:46:03.255Z,988.44
2018-12-07T17:56:02.016Z,988.33
2018-12-07T18:11:01.722Z,988.24
2018-12-07T18:26:01.892Z,987.98
2018-12-07T18:41:01.844Z,987.81
2018-12-07T18:56:01.827Z,987.43
2018-12-07T19:11:01.855Z,987.29
2018-12-07T19:16:01.466Z,987.18
2018-12-07T19:31:01.574Z,987.02
2018-12-07T19:46:01.887Z,986.92
2018-12-07T20:01:01.782Z,986.7
2018-12-07T20:06:02.258Z,987.32
2018-12-07T20:17:01.396Z,987.37
2018-12-07T20:22:01.453Z,987.63
2018-12-07T20:27:01.829Z,987.63
2018-12-07T20:32:01.997Z,987.86
2018-12-07T20:37:01.538Z,987.86
2018-12-07T20:42:01.961Z,988.0
2018-12-07T20:47:02.060Z,988.0
2018-12-07T20:52:01.753Z,988.33
2018-12-07T20:57:01.737Z,988.33
2018-12-07T21:12:01.938Z,988.59
2018-12-07T21:22:01.859Z,988.95
2018-12-07T21:27:01.947Z,988.95
2018-12-07T21:32:01.987Z,989.24
2018-12-07T21:37:01.747Z,989.24
2018-12-07T21:42:02.043Z,989.32
2018-12-07T21:52:02.061Z,989.56
2018-12-07T22:07:01.932Z,989.67
2018-12-07T22:23:02.053Z,989.91
2018-12-07T22:38:01.662Z,990.02
2018-12-07T22:53:01.512Z,990.05
2018-12-07T23:03:01.552Z,990.45
2018-12-07T23:18:01.543Z,990.38
2018-12-07T23:24:02.440Z,990.5
2018-12-07T23:39:02.348Z,990.7
2018-12-07T23:54:01.463Z,990.6
